sensor_id;sensor_type;location;lat;lon;timestamp;temperature;humidity
15298;DHT22;7750;48.796;9.026;2022-11-15T09:02:26;15.90;68.90
15298;DHT22;7750;48.796;9.026;2022-11-15T09:07:26;16.30;66.40
15298;DHT22;7750;48.796;9.026;2022-11-15T09:12:30;16.20;68.20
15298;DHT22;7750;48.796;9.026;2022-11-15T09:17:37;16.20;67.80
15298;DHT22;7750;48.796;9.026;2022-11-15T09:22:38;16.20;68.50
15298;DHT22;7750;48.796;9.026;2022-11-15T09:27:39;16.30;69.00
15298;DHT22;7750;48.796;9.026;2022-11-15T09:32:40;16.30;68.80
15298;DHT22;7750;48.796;9.026;2022-11-15T09:37:40;16.40;68.50
15298;DHT22;7750;48.796;9.026;2022-11-15T09:54:05;16.60;68.20
15298;DHT22;7750;48.796;9.026;2022-11-15T10:04:39;16.70;68.70
15298;DHT22;7750;48.796;9.026;2022-11-15T10:10:04;16.70;69.00
15298;DHT22;7750;48.796;9.026;2022-11-15T10:15:15;16.80;67.50
15298;DHT22;7750;48.796;9.026;2022-11-15T10:30:37;16.90;66.10
15298;DHT22;7750;48.796;9.026;2022-11-15T10:35:38;17.00;66.30
15298;DHT22;7750;48.796;9.026;2022-11-15T10:40:40;17.00;66.40
15298;DHT22;7750;48.796;9.026;2022-11-15T10:45:42;17.10;66.30
15298;DHT22;7750;48.796;9.026;2022-11-15T10:50:44;17.10;65.60
15298;DHT22;7750;48.796;9.026;2022-11-15T10:55:50;17.10;66.00
15298;DHT22;7750;48.796;9.026;2022-11-15T11:00:52;17.10;65.80
15298;DHT22;7750;48.796;9.026;2022-11-15T11:06:23;17.20;65.70
15298;DHT22;7750;48.796;9.026;2022-11-15T11:11:47;17.20;65.30
15298;DHT22;7750;48.796;9.026;2022-11-15T11:34:29;17.20;66.30
15298;DHT22;7750;48.796;9.026;2022-11-15T11:39:39;17.30;66.30
15298;DHT22;7750;48.796;9.026;2022-11-15T11:55:36;17.50;66.10
15298;DHT22;7750;48.796;9.026;2022-11-15T12:06:38;17.80;65.90
15298;DHT22;7750;48.796;9.026;2022-11-15T12:17:13;17.90;64.80
15298;DHT22;7750;48.796;9.026;2022-11-15T12:22:23;17.90;64.80
15298;DHT22;7750;48.796;9.026;2022-11-15T12:33:14;17.90;64.20
15298;DHT22;7750;48.796;9.026;2022-11-15T12:38:12;17.90;64.30
15298;DHT22;7750;48.796;9.026;2022-11-15T12:43:41;17.90;64.50
15298;DHT22;7750;48.796;9.026;2022-11-15T12:53:43;17.80;64.40
15298;DHT22;7750;48.796;9.026;2022-11-15T12:58:55;17.80;64.70
15298;DHT22;7750;48.796;9.026;2022-11-15T13:15:07;17.70;64.70
15298;DHT22;7750;48.796;9.026;2022-11-15T13:20:28;17.70;65.50
15298;DHT22;7750;48.796;9.026;2022-11-15T13:30:39;17.70;64.80
15298;DHT22;7750;48.796;9.026;2022-11-15T13:35:42;17.80;65.10
15298;DHT22;7750;48.796;9.026;2022-11-15T13:46:16;17.80;64.60
15298;DHT22;7750;48.796;9.026;2022-11-15T14:03:21;17.90;64.60
15298;DHT22;7750;48.796;9.026;2022-11-15T14:08:24;17.90;64.60
15298;DHT22;7750;48.796;9.026;2022-11-15T14:13:31;17.80;64.60
15298;DHT22;7750;48.796;9.026;2022-11-15T14:24:17;17.80;65.00
15298;DHT22;7750;48.796;9.026;2022-11-15T14:29:25;17.80;64.80
15298;DHT22;7750;48.796;9.026;2022-11-15T14:34:26;17.80;65.20
15298;DHT22;7750;48.796;9.026;2022-11-15T14:39:34;17.80;65.20
15298;DHT22;7750;48.796;9.026;2022-11-15T14:44:37;17.70;64.70
15298;DHT22;7750;48.796;9.026;2022-11-15T14:50:03;17.70;65.00
15298;DHT22;7750;48.796;9.026;2022-11-15T14:55:33;17.70;65.10
15298;DHT22;7750;48.796;9.026;2022-11-15T15:00:38;17.70;65.40
15298;DHT22;7750;48.796;9.026;2022-11-15T15:05:43;17.60;65.50
15298;DHT22;7750;48.796;9.026;2022-11-15T15:10:46;17.60;65.50
15298;DHT22;7750;48.796;9.026;2022-11-15T15:15:55;17.60;65.20
15298;DHT22;7750;48.796;9.026;2022-11-15T15:20:58;17.50;65.10
15298;DHT22;7750;48.796;9.026;2022-11-15T15:26:07;17.50;65.70
15298;DHT22;7750;48.796;9.026;2022-11-15T15:31:09;17.40;66.00
15298;DHT22;7750;48.796;9.026;2022-11-15T15:36:12;17.40;66.10
15298;DHT22;7750;48.796;9.026;2022-11-15T15:41:16;17.30;66.30
15298;DHT22;7750;48.796;9.026;2022-11-15T15:46:48;17.30;66.50
15298;DHT22;7750;48.796;9.026;2022-11-15T15:51:55;17.20;66.60
15298;DHT22;7750;48.796;9.026;2022-11-15T15:57:06;17.20;66.30
15298;DHT22;7750;48.796;9.026;2022-11-15T16:02:11;17.10;67.00
15298;DHT22;7750;48.796;9.026;2022-11-15T16:07:17;17.40;67.10
15298;DHT22;7750;48.796;9.026;2022-11-15T16:12:20;17.20;66.90
15298;DHT22;7750;48.796;9.026;2022-11-15T16:17:24;17.20;66.80
15298;DHT22;7750;48.796;9.026;2022-11-15T16:22:25;17.10;66.80
15298;DHT22;7750;48.796;9.026;2022-11-15T16:27:26;17.00;66.60
15298;DHT22;7750;48.796;9.026;2022-11-15T16:32:26;17.00;66.40
15298;DHT22;7750;48.796;9.026;2022-11-15T16:37:27;17.00;66.50
15298;DHT22;7750;48.796;9.026;2022-11-15T16:42:28;16.90;66.40
15298;DHT22;7750;48.796;9.026;2022-11-15T16:47:28;16.90;66.40
15298;DHT22;7750;48.796;9.026;2022-11-15T16:52:31;16.90;66.30
15298;DHT22;7750;48.796;9.026;2022-11-15T16:57:34;16.90;66.20
15298;DHT22;7750;48.796;9.026;2022-11-15T17:02:35;16.80;66.20
15298;DHT22;7750;48.796;9.026;2022-11-15T17:07:39;16.80;66.20
15298;DHT22;7750;48.796;9.026;2022-11-15T17:12:40;16.80;66.10
15298;DHT22;7750;48.796;9.026;2022-11-15T17:17:41;16.80;66.10
15298;DHT22;7750;48.796;9.026;2022-11-15T17:22:42;16.80;66.20
15298;DHT22;7750;48.796;9.026;2022-11-15T17:27:43;16.80;66.20
15298;DHT22;7750;48.796;9.026;2022-11-15T17:32:43;16.80;66.10
15298;DHT22;7750;48.796;9.026;2022-11-15T17:37:44;16.80;66.20
15298;DHT22;7750;48.796;9.026;2022-11-15T17:42:47;16.80;66.30
15298;DHT22;7750;48.796;9.026;2022-11-15T17:47:48;16.70;66.00
15298;DHT22;7750;48.796;9.026;2022-11-15T18:18:44;16.60;66.80
15298;DHT22;7750;48.796;9.026;2022-11-15T20:16:29;16.30;69.30
15298;DHT22;7750;48.796;9.026;2022-11-15T20:21:30;16.30;69.30
15298;DHT22;7750;48.796;9.026;2022-11-15T20:26:30;16.20;69.20
15298;DHT22;7750;48.796;9.026;2022-11-15T20:31:31;16.20;69.50
15298;DHT22;7750;48.796;9.026;2022-11-15T20:36:32;16.10;69.60
15298;DHT22;7750;48.796;9.026;2022-11-15T20:41:33;16.10;69.80
15298;DHT22;7750;48.796;9.026;2022-11-15T20:46:34;16.00;69.90
15298;DHT22;7750;48.796;9.026;2022-11-15T20:51:34;16.00;70.00
15298;DHT22;7750;48.796;9.026;2022-11-15T20:56:36;16.00;70.40
15298;DHT22;7750;48.796;9.026;2022-11-15T21:01:39;16.00;70.60
15298;DHT22;7750;48.796;9.026;2022-11-15T21:06:42;16.00;70.90
15298;DHT22;7750;48.796;9.026;2022-11-15T21:11:43;15.90;70.70
15298;DHT22;7750;48.796;9.026;2022-11-15T21:22:14;15.90;71.00
15298;DHT22;7750;48.796;9.026;2022-11-15T21:27:15;15.90;71.00
15298;DHT22;7750;48.796;9.026;2022-11-15T21:32:19;15.80;70.90
15298;DHT22;7750;48.796;9.026;2022-11-15T21:37:19;15.80;71.10
15298;DHT22;7750;48.796;9.026;2022-11-15T21:42:20;15.80;71.20
15298;DHT22;7750;48.796;9.026;2022-11-15T21:47:23;15.70;71.10
15298;DHT22;7750;48.796;9.026;2022-11-15T21:52:24;15.70;70.90
15298;DHT22;7750;48.796;9.026;2022-11-15T21:57:25;15.70;71.30
15298;DHT22;7750;48.796;9.026;2022-11-15T22:02:29;15.70;71.30
15298;DHT22;7750;48.796;9.026;2022-11-15T22:07:30;15.60;71.60
15298;DHT22;7750;48.796;9.026;2022-11-15T22:12:30;15.60;71.70
15298;DHT22;7750;48.796;9.026;2022-11-15T22:17:32;15.50;71.60
15298;DHT22;7750;48.796;9.026;2022-11-15T22:22:51;15.50;72.10
15298;DHT22;7750;48.796;9.026;2022-11-15T22:27:53;15.40;71.90
15298;DHT22;7750;48.796;9.026;2022-11-15T22:32:54;15.50;72.00
15298;DHT22;7750;48.796;9.026;2022-11-15T22:37:54;15.40;71.90
15298;DHT22;7750;48.796;9.026;2022-11-15T22:42:55;15.50;71.90
15298;DHT22;7750;48.796;9.026;2022-11-15T22:47:56;15.40;72.10
15298;DHT22;7750;48.796;9.026;2022-11-15T22:52:57;15.40;72.10
15298;DHT22;7750;48.796;9.026;2022-11-15T22:57:57;15.40;71.80
15298;DHT22;7750;48.796;9.026;2022-11-15T23:02:58;15.40;72.00
15298;DHT22;7750;48.796;9.026;2022-11-15T23:07:59;15.40;72.00
15298;DHT22;7750;48.796;9.026;2022-11-15T23:13:04;15.30;72.20
15298;DHT22;7750;48.796;9.026;2022-11-15T23:18:17;15.30;72.60
15298;DHT22;7750;48.796;9.026;2022-11-15T23:23:18;15.30;72.40
15298;DHT22;7750;48.796;9.026;2022-11-15T23:28:19;15.20;72.20
15298;DHT22;7750;48.796;9.026;2022-11-15T23:33:20;15.20;72.80
15298;DHT22;7750;48.796;9.026;2022-11-15T23:38:39;15.20;72.80
15298;DHT22;7750;48.796;9.026;2022-11-15T23:43:45;15.10;73.00
15298;DHT22;7750;48.796;9.026;2022-11-15T23:48:48;15.10;73.30
15298;DHT22;7750;48.796;9.026;2022-11-15T23:53:49;15.10;72.60
15298;DHT22;7750;48.796;9.026;2022-11-15T23:58:50;15.10;73.10
